createdAt,value
2022-08-08T00:01:10.130Z,80.80
2022-08-08T00:03:48.259Z,81.13
2022-08-08T00:06:34.778Z,81.11
2022-08-08T00:09:07.696Z,81.15
2022-08-08T00:11:46.742Z,81.07
2022-08-08T00:14:58.641Z,81.16
2022-08-08T00:18:02.117Z,80.75
2022-08-08T00:20:36.180Z,81.19
2022-08-08T00:23:10.964Z,81.00
2022-08-08T00:25:46.786Z,81.01
2022-08-08T00:28:34.931Z,80.58
2022-08-08T00:32:16.426Z,81.12
2022-08-08T00:34:36.294Z,80.56
2022-08-08T00:37:48.058Z,81.04
2022-08-08T00:41:12.735Z,81.52
2022-08-08T00:44:03.434Z,81.94
2022-08-08T00:46:57.939Z,82.15
2022-08-08T00:50:11.958Z,82.15
2022-08-08T00:52:51.432Z,81.98
2022-08-08T00:55:53.262Z,82.21
2022-08-08T00:59:10.616Z,82.15
2022-08-08T01:01:55.844Z,82.17
2022-08-08T01:04:56.263Z,82.54
2022-08-08T01:07:56.152Z,82.42
2022-08-08T01:10:57.880Z,82.34
2022-08-08T01:13:58.463Z,82.48
2022-08-08T01:17:04.770Z,82.60
2022-08-08T01:20:03.904Z,82.53
2022-08-08T01:23:03.783Z,82.52
2022-08-08T01:26:13.319Z,82.33
2022-08-08T01:29:24.394Z,82.74
2022-08-08T01:32:34.042Z,82.75
2022-08-08T01:35:40.648Z,82.76
2022-08-08T01:38:39.479Z,82.70
2022-08-08T01:41:22.784Z,82.59
2022-08-08T01:44:03.336Z,82.75
2022-08-08T01:46:52.252Z,82.74
2022-08-08T01:49:43.660Z,82.74
2022-08-08T01:53:06.742Z,82.48
2022-08-08T01:56:27.087Z,82.56
2022-08-08T01:58:32.066Z,82.76
2022-08-08T02:01:20.348Z,82.98
2022-08-08T02:04:09.938Z,82.85
2022-08-08T02:06:55.995Z,82.88
2022-08-08T02:10:01.949Z,82.64
2022-08-08T02:12:33.704Z,82.56
2022-08-08T02:15:11.160Z,82.66
2022-08-08T02:17:53.273Z,82.33
2022-08-08T02:21:00.751Z,82.34
2022-08-08T02:23:31.554Z,82.50
2022-08-08T02:26:10.995Z,82.67
2022-08-08T02:29:03.141Z,82.82
2022-08-08T02:32:01.257Z,82.69
2022-08-08T02:35:08.429Z,82.71
2022-08-08T02:37:59.172Z,82.68
2022-08-08T02:40:45.260Z,82.75
2022-08-08T02:44:36.848Z,83.24
2022-08-08T02:46:50.543Z,83.13
2022-08-08T02:50:05.548Z,83.31
2022-08-08T02:53:21.995Z,83.05
2022-08-08T02:56:37.538Z,82.90
2022-08-08T02:59:57.445Z,82.71
2022-08-08T03:05:00.830Z,82.83
2022-08-08T03:07:08.139Z,82.40
2022-08-08T03:10:09.523Z,82.56
2022-08-08T03:16:04.027Z,82.63
2022-08-08T03:16:35.794Z,82.73
2022-08-08T03:19:39.428Z,82.87
2022-08-08T03:22:51.095Z,82.92
2022-08-08T03:25:14.537Z,82.82
2022-08-08T03:27:56.377Z,82.71
2022-08-08T03:30:27.247Z,82.81
2022-08-08T03:33:55.254Z,82.95
2022-08-08T03:36:03.786Z,82.98
2022-08-08T03:38:57.649Z,82.54
2022-08-08T03:42:13.378Z,82.57
2022-08-08T03:44:25.712Z,82.60
2022-08-08T03:46:54.858Z,82.88
2022-08-08T03:49:57.432Z,83.16
2022-08-08T03:52:17.189Z,83.18
2022-08-08T03:55:02.444Z,83.14
2022-08-08T03:58:35.844Z,83.23
2022-08-08T04:00:30.537Z,83.28
2022-08-08T04:03:11.471Z,83.36
2022-08-08T04:05:49.728Z,83.19
2022-08-08T04:08:33.155Z,83.20
2022-08-08T04:11:10.871Z,83.28
2022-08-08T04:14:03.170Z,83.17
2022-08-08T04:16:40.568Z,83.12
2022-08-08T04:19:23.794Z,83.07
2022-08-08T04:21:55.823Z,82.97
2022-08-08T04:24:29.290Z,82.98
2022-08-08T04:27:00.987Z,82.86
2022-08-08T04:29:33.253Z,83.01
2022-08-08T04:32:10.569Z,83.19
2022-08-08T04:34:43.074Z,83.08
2022-08-08T04:37:31.792Z,83.19
2022-08-08T04:40:10.558Z,83.22
2022-08-08T04:42:57.295Z,83.31
2022-08-08T04:45:31.345Z,83.06
2022-08-08T04:48:02.312Z,83.22
2022-08-08T04:50:38.754Z,83.14
2022-08-08T04:54:26.737Z,82.60
2022-08-08T04:56:09.088Z,82.26
2022-08-08T04:58:38.322Z,82.31
2022-08-08T05:01:10.845Z,82.21
2022-08-08T05:04:11.123Z,82.39
2022-08-08T05:06:40.577Z,82.16
2022-08-08T05:09:12.047Z,81.85
2022-08-08T05:11:42.823Z,81.71
2022-08-08T05:14:16.270Z,81.37
2022-08-08T05:17:01.546Z,81.30
2022-08-08T05:20:09.271Z,81.46
2022-08-08T05:22:36.808Z,81.89
2022-08-08T05:25:06.199Z,81.75
2022-08-08T05:27:41.751Z,81.74
2022-08-08T05:30:15.329Z,81.55
2022-08-08T05:32:49.286Z,81.61
2022-08-08T05:35:24.492Z,81.75
2022-08-08T05:38:02.442Z,81.71
2022-08-08T05:40:47.186Z,81.64
2022-08-08T05:43:39.561Z,81.66
2022-08-08T05:46:14.039Z,81.16
2022-08-08T05:48:52.365Z,80.93
2022-08-08T05:51:26.599Z,80.41
2022-08-08T05:54:27.146Z,79.33
2022-08-08T05:56:48.241Z,78.81
2022-08-08T05:59:59.084Z,78.46
2022-08-08T06:02:40.860Z,78.68
2022-08-08T06:05:35.143Z,77.91
2022-08-08T06:08:09.898Z,77.23
2022-08-08T06:10:50.301Z,76.38
2022-08-08T06:13:22.578Z,76.21
2022-08-08T06:15:55.326Z,75.25
2022-08-08T06:18:33.797Z,75.12
2022-08-08T06:21:11.759Z,74.74
2022-08-08T06:24:02.538Z,74.09
2022-08-08T06:26:44.696Z,73.75
2022-08-08T06:29:49.513Z,73.95
2022-08-08T06:32:17.104Z,73.01
2022-08-08T06:35:12.097Z,73.06
2022-08-08T06:37:56.074Z,72.41
2022-08-08T06:40:32.159Z,72.72
2022-08-08T06:43:05.945Z,72.39
2022-08-08T06:45:44.749Z,72.38
2022-08-08T06:48:17.138Z,72.49
2022-08-08T06:50:46.718Z,71.53
2022-08-08T06:53:22.816Z,71.07
2022-08-08T06:56:02.675Z,70.55
2022-08-08T06:58:34.725Z,69.89
2022-08-08T07:01:11.613Z,68.40
2022-08-08T07:04:37.034Z,69.01
2022-08-08T07:07:10.495Z,68.70
2022-08-08T07:09:56.416Z,68.41
2022-08-08T07:12:42.931Z,67.55
2022-08-08T07:15:32.716Z,67.41
2022-08-08T07:18:36.909Z,67.23
2022-08-08T07:21:01.861Z,65.90
2022-08-08T07:24:02.038Z,65.00
2022-08-08T07:26:35.624Z,64.94
2022-08-08T07:29:08.159Z,64.25
2022-08-08T07:31:41.997Z,63.79
2022-08-08T07:34:26.643Z,63.31
2022-08-08T07:37:11.530Z,63.47
2022-08-08T07:39:45.498Z,62.70
2022-08-08T07:42:18.723Z,63.37
2022-08-08T07:44:48.712Z,63.03
2022-08-08T07:47:38.291Z,63.16
2022-08-08T07:50:10.002Z,62.77
2022-08-08T07:52:43.850Z,62.46
2022-08-08T07:55:20.435Z,61.01
2022-08-08T07:58:02.558Z,62.26
2022-08-08T08:00:41.072Z,61.54
2022-08-08T08:03:23.528Z,59.64
2022-08-08T08:06:00.328Z,59.87
2022-08-08T08:08:50.109Z,59.77
2022-08-08T08:11:34.039Z,60.43
2022-08-08T08:14:20.229Z,57.42
2022-08-08T08:16:50.900Z,57.21
2022-08-08T08:19:22.747Z,57.39
2022-08-08T08:21:57.395Z,57.61
2022-08-08T08:24:32.733Z,57.64
2022-08-08T08:27:08.441Z,56.49
2022-08-08T08:29:40.098Z,55.51
2022-08-08T08:32:11.514Z,55.52
2022-08-08T08:34:43.446Z,55.86
2022-08-08T08:37:20.367Z,54.84
2022-08-08T08:40:01.485Z,54.53
2022-08-08T08:42:35.748Z,53.57
2022-08-08T08:45:21.884Z,53.46
2022-08-08T08:47:58.680Z,52.82
2022-08-08T08:50:35.537Z,52.63
2022-08-08T08:53:54.617Z,54.33
2022-08-08T08:56:05.654Z,51.80
2022-08-08T08:58:42.243Z,53.36
2022-08-08T09:01:20.059Z,50.93
2022-08-08T09:03:51.788Z,50.71
2022-08-08T09:06:34.257Z,51.36
2022-08-08T09:09:19.292Z,50.37
2022-08-08T09:12:07.821Z,51.53
2022-08-08T09:14:42.447Z,50.40
2022-08-08T09:17:18.863Z,50.25
2022-08-08T09:21:56.000Z,49.70
2022-08-08T09:22:39.373Z,48.93
2022-08-08T09:25:10.595Z,47.89
2022-08-08T09:27:57.971Z,46.33
2022-08-08T09:30:34.614Z,48.73
2022-08-08T09:33:53.985Z,46.42
2022-08-08T09:35:54.143Z,47.10
2022-08-08T09:38:52.012Z,47.03
2022-08-08T09:41:54.738Z,47.40
2022-08-08T09:44:34.459Z,46.94
2022-08-08T09:47:25.672Z,47.19
2022-08-08T09:50:03.284Z,46.75
2022-08-08T09:52:54.043Z,47.58
2022-08-08T09:55:31.702Z,45.76
2022-08-08T09:58:25.965Z,44.60
2022-08-08T10:01:00.977Z,45.49
2022-08-08T10:03:39.668Z,43.84
2022-08-08T10:06:16.209Z,43.71
2022-08-08T10:08:46.696Z,44.71
2022-08-08T10:12:26.968Z,44.50
2022-08-08T10:14:07.403Z,43.61
2022-08-08T10:16:55.884Z,43.63
2022-08-08T10:19:57.887Z,41.82
2022-08-08T10:22:27.939Z,41.82
2022-08-08T10:25:03.073Z,43.50
2022-08-08T10:27:41.413Z,43.48
2022-08-08T10:30:16.158Z,41.57
2022-08-08T10:33:00.038Z,43.90
2022-08-08T10:36:08.567Z,42.24
2022-08-08T10:38:21.167Z,42.04
2022-08-08T10:40:53.591Z,42.05
2022-08-08T10:43:23.173Z,40.82
2022-08-08T10:45:57.329Z,40.20
2022-08-08T10:48:57.044Z,42.82
2022-08-08T10:51:31.049Z,43.00
2022-08-08T10:54:02.248Z,42.35
2022-08-08T10:56:35.156Z,41.47
2022-08-08T10:59:07.783Z,41.39
2022-08-08T11:01:38.606Z,41.40
2022-08-08T11:04:10.882Z,41.19
2022-08-08T11:06:41.958Z,42.17
2022-08-08T11:09:19.684Z,41.06
2022-08-08T11:12:06.127Z,41.05
2022-08-08T11:14:50.302Z,42.54
2022-08-08T11:17:59.907Z,41.18
2022-08-08T11:20:12.839Z,39.80
2022-08-08T11:22:41.543Z,40.94
2022-08-08T11:25:14.342Z,41.83
2022-08-08T11:27:46.685Z,41.56
2022-08-08T11:30:20.314Z,43.20
2022-08-08T11:32:55.282Z,41.90
2022-08-08T11:35:37.779Z,41.07
2022-08-08T11:38:35.602Z,41.56
2022-08-08T11:41:00.256Z,41.64
2022-08-08T11:43:38.823Z,43.47
2022-08-08T11:46:14.460Z,42.53
2022-08-08T11:48:47.812Z,43.01
2022-08-08T11:51:30.719Z,43.29
2022-08-08T11:54:27.261Z,42.37
2022-08-08T11:56:57.613Z,42.14
2022-08-08T11:59:57.889Z,42.17
2022-08-08T12:02:32.240Z,42.12
2022-08-08T12:05:02.879Z,43.30
2022-08-08T12:07:31.993Z,41.66
2022-08-08T12:10:11.831Z,41.85
2022-08-08T12:12:48.657Z,42.26
2022-08-08T12:15:28.427Z,42.30
2022-08-08T12:17:56.133Z,41.31
2022-08-08T12:20:25.262Z,43.49
2022-08-08T12:22:54.058Z,43.61
2022-08-08T12:25:29.910Z,43.23
2022-08-08T12:28:15.741Z,44.25
2022-08-08T12:30:49.949Z,42.40
2022-08-08T12:33:19.516Z,42.90
2022-08-08T12:35:52.603Z,43.33
2022-08-08T12:38:30.412Z,42.91
2022-08-08T12:41:10.569Z,44.30
2022-08-08T12:44:00.477Z,42.94
2022-08-08T12:46:29.692Z,43.91
2022-08-08T12:49:25.576Z,43.95
2022-08-08T12:51:58.407Z,43.76
2022-08-08T12:54:33.278Z,43.74
2022-08-08T12:57:14.428Z,43.65
2022-08-08T13:00:03.613Z,43.30
2022-08-08T13:02:35.898Z,42.73
2022-08-08T13:05:15.682Z,43.34
2022-08-08T13:08:03.461Z,44.18
2022-08-08T13:10:36.582Z,43.36
2022-08-08T13:13:28.426Z,42.93
2022-08-08T13:19:01.749Z,43.79
2022-08-08T13:21:53.429Z,42.90
2022-08-08T13:24:40.923Z,43.73
2022-08-08T13:27:15.242Z,44.21
2022-08-08T13:29:51.366Z,44.38
2022-08-08T13:32:25.228Z,43.66
2022-08-08T13:34:56.063Z,44.92
2022-08-08T13:37:51.821Z,44.92
2022-08-08T13:40:18.099Z,44.49
2022-08-08T13:42:55.815Z,43.54
2022-08-08T13:45:24.809Z,44.59
2022-08-08T13:47:58.039Z,44.03
2022-08-08T13:50:36.350Z,43.69
2022-08-08T13:53:24.848Z,44.62
2022-08-08T13:56:01.165Z,46.30
2022-08-08T13:58:29.663Z,43.96
2022-08-08T14:00:57.844Z,44.53
2022-08-08T14:03:52.191Z,45.05
2022-08-08T14:06:20.474Z,43.17
2022-08-08T14:09:25.015Z,43.20
2022-08-08T14:11:49.855Z,43.34
2022-08-08T14:14:20.887Z,42.72
2022-08-08T14:16:53.996Z,43.42
2022-08-08T14:19:57.815Z,46.82
2022-08-08T14:22:24.793Z,43.86
2022-08-08T14:24:59.842Z,43.23
2022-08-08T14:27:30.093Z,43.56
2022-08-08T14:30:00.852Z,43.57
2022-08-08T14:32:30.737Z,43.24
2022-08-08T14:35:04.590Z,43.14
2022-08-08T14:37:43.301Z,45.13
2022-08-08T14:40:29.736Z,43.47
2022-08-08T14:42:59.786Z,42.36
2022-08-08T14:45:47.171Z,42.10
2022-08-08T14:48:34.156Z,41.92
2022-08-08T14:51:08.176Z,41.94
2022-08-08T14:53:55.531Z,43.39
2022-08-08T14:56:25.697Z,42.64
2022-08-08T14:58:54.252Z,42.08
2022-08-08T15:01:40.951Z,42.17
2022-08-08T15:04:10.393Z,42.22
2022-08-08T15:06:42.347Z,43.04
2022-08-08T15:09:13.235Z,41.33
2022-08-08T15:11:46.362Z,41.08
2022-08-08T15:14:25.183Z,40.58
2022-08-08T15:16:55.312Z,40.57
2022-08-08T15:19:28.169Z,40.73
2022-08-08T15:21:57.839Z,40.20
2022-08-08T15:24:31.739Z,40.36
2022-08-08T15:27:12.112Z,40.37
2022-08-08T15:29:48.270Z,41.09
2022-08-08T15:32:19.794Z,40.46
2022-08-08T15:34:49.093Z,40.62
2022-08-08T15:37:19.054Z,39.92
2022-08-08T15:39:48.619Z,40.29
2022-08-08T15:42:32.645Z,40.04
2022-08-08T15:45:01.558Z,39.10
2022-08-08T15:47:31.296Z,38.97
2022-08-08T15:49:59.976Z,40.23
2022-08-08T15:52:28.167Z,38.56
2022-08-08T15:54:57.874Z,38.20
2022-08-08T15:57:26.435Z,38.47
2022-08-08T16:00:18.005Z,37.96
2022-08-08T16:02:50.771Z,37.78
2022-08-08T16:05:21.217Z,37.26
2022-08-08T16:07:52.368Z,37.56
2022-08-08T16:13:04.462Z,38.17
2022-08-08T16:13:29.944Z,39.12
2022-08-08T16:16:16.516Z,40.05
2022-08-08T16:18:57.300Z,41.18
2022-08-08T16:21:32.044Z,41.10
2022-08-08T16:24:02.115Z,41.05
2022-08-08T16:26:35.208Z,41.18
2022-08-08T16:29:08.136Z,41.92
2022-08-08T16:31:42.040Z,41.95
2022-08-08T16:34:17.167Z,41.75
2022-08-08T16:36:49.389Z,42.79
2022-08-08T16:39:48.923Z,42.55
2022-08-08T16:42:08.224Z,42.80
2022-08-08T16:44:47.336Z,43.64
2022-08-08T16:47:40.163Z,43.47
2022-08-08T16:50:14.442Z,44.08
2022-08-08T16:55:22.957Z,44.24
2022-08-08T16:55:55.368Z,44.45
2022-08-08T16:58:22.240Z,44.41
2022-08-08T17:00:53.665Z,44.76
2022-08-08T17:03:25.196Z,44.90
2022-08-08T17:06:37.008Z,44.88
2022-08-08T17:08:57.715Z,44.97
2022-08-08T17:11:28.439Z,45.73
2022-08-08T17:14:18.853Z,45.31
2022-08-08T17:16:57.561Z,44.92
2022-08-08T17:19:28.811Z,45.55
2022-08-08T17:21:57.311Z,45.49
2022-08-08T17:24:27.960Z,46.23
2022-08-08T17:26:58.655Z,46.79
2022-08-08T17:29:28.699Z,46.21
2022-08-08T17:32:02.589Z,46.12
2022-08-08T17:34:48.251Z,46.35
2022-08-08T17:37:19.293Z,46.77
2022-08-08T17:40:05.767Z,47.26
2022-08-08T17:42:47.245Z,47.16
2022-08-08T17:45:22.649Z,47.83
2022-08-08T17:47:53.920Z,47.89
2022-08-08T17:50:22.441Z,47.64
2022-08-08T17:52:51.063Z,47.59
2022-08-08T17:56:05.974Z,48.22
2022-08-08T17:58:06.610Z,48.96
2022-08-08T18:00:41.136Z,49.27
2022-08-08T18:03:13.126Z,48.84
2022-08-08T18:05:44.243Z,49.57
2022-08-08T18:08:24.671Z,49.95
2022-08-08T18:11:07.206Z,50.00
2022-08-08T18:13:41.919Z,49.28
2022-08-08T18:16:12.714Z,49.51
2022-08-08T18:18:45.464Z,49.05
2022-08-08T18:21:25.190Z,48.95
2022-08-08T18:24:03.795Z,49.70
2022-08-08T18:26:33.448Z,49.97
2022-08-08T18:29:02.152Z,50.53
2022-08-08T18:31:35.434Z,50.98
2022-08-08T18:34:11.701Z,50.93
2022-08-08T18:36:55.581Z,51.25
2022-08-08T18:39:28.359Z,52.03
2022-08-08T18:42:03.311Z,51.83
2022-08-08T18:44:32.968Z,52.48
2022-08-08T18:47:04.460Z,52.66
2022-08-08T18:49:57.784Z,52.58
2022-08-08T18:52:23.454Z,53.02
2022-08-08T18:54:59.281Z,53.50
2022-08-08T18:57:31.481Z,53.79
2022-08-08T19:00:00.642Z,53.70
2022-08-08T19:02:30.375Z,53.82
2022-08-08T19:04:58.893Z,54.24
2022-08-08T19:07:29.556Z,54.59
2022-08-08T19:10:15.513Z,54.66
2022-08-08T19:12:49.935Z,54.79
2022-08-08T19:15:23.818Z,54.91
2022-08-08T19:18:32.216Z,55.38
2022-08-08T19:20:53.819Z,55.96
2022-08-08T19:23:21.940Z,55.90
2022-08-08T19:26:19.856Z,56.44
2022-08-08T19:28:41.660Z,56.77
2022-08-08T19:31:13.003Z,57.75
2022-08-08T19:34:04.908Z,59.86
2022-08-08T19:36:35.242Z,61.56
2022-08-08T19:39:03.023Z,62.85
2022-08-08T19:41:34.037Z,63.63
2022-08-08T19:44:12.627Z,64.19
2022-08-08T19:46:41.270Z,64.90
2022-08-08T19:49:10.282Z,64.96
2022-08-08T19:51:43.274Z,65.57
2022-08-08T19:54:12.156Z,65.85
2022-08-08T19:56:41.439Z,66.20
2022-08-08T19:59:22.293Z,66.57
2022-08-08T20:02:03.540Z,66.48
2022-08-08T20:04:34.148Z,66.31
2022-08-08T20:07:05.094Z,67.17
2022-08-08T20:09:55.711Z,67.02
2022-08-08T20:12:32.991Z,67.66
2022-08-08T20:15:15.152Z,67.99
2022-08-08T20:17:45.946Z,68.70
2022-08-08T20:20:19.090Z,69.06
2022-08-08T20:22:54.042Z,69.33
2022-08-08T20:25:26.506Z,69.98
2022-08-08T20:27:58.325Z,70.20
2022-08-08T20:30:52.373Z,70.01
2022-08-08T20:35:58.029Z,70.42
2022-08-08T20:38:29.158Z,70.89
2022-08-08T20:41:00.456Z,70.51
2022-08-08T20:43:43.501Z,70.57
2022-08-08T20:46:16.247Z,71.69
2022-08-08T20:48:45.059Z,71.73
2022-08-08T20:51:14.568Z,72.46
2022-08-08T20:53:59.392Z,72.88
2022-08-08T20:56:34.615Z,72.80
2022-08-08T20:59:05.707Z,72.72
2022-08-08T21:02:05.463Z,73.04
2022-08-08T21:04:23.210Z,73.43
2022-08-08T21:06:54.097Z,73.27
2022-08-08T21:09:22.091Z,73.51
2022-08-08T21:11:52.070Z,73.76
2022-08-08T21:14:33.767Z,73.80
2022-08-08T21:17:03.083Z,74.18
2022-08-08T21:19:45.751Z,74.20
2022-08-08T21:22:16.961Z,74.10
2022-08-08T21:24:52.343Z,74.29
2022-08-08T21:28:06.056Z,74.39
2022-08-08T21:30:18.909Z,74.39
2022-08-08T21:32:51.121Z,74.24
2022-08-08T21:36:17.234Z,74.36
2022-08-08T21:38:16.745Z,74.68
2022-08-08T21:40:55.984Z,74.69
2022-08-08T21:43:25.910Z,74.44
2022-08-08T21:48:06.283Z,74.56
2022-08-08T21:48:51.644Z,74.91
2022-08-08T21:54:18.418Z,74.79
2022-08-08T21:54:36.811Z,75.23
2022-08-08T21:56:59.608Z,75.18
2022-08-08T21:59:43.875Z,75.28
2022-08-08T22:02:16.679Z,75.71
2022-08-08T22:04:50.837Z,75.97
2022-08-08T22:07:20.012Z,76.38
2022-08-08T22:09:56.191Z,76.06
2022-08-08T22:12:24.175Z,75.98
2022-08-08T22:14:53.033Z,75.87
2022-08-08T22:17:20.981Z,76.22
2022-08-08T22:20:12.554Z,76.04
2022-08-08T22:22:38.516Z,76.49
2022-08-08T22:25:19.695Z,76.48
2022-08-08T22:28:02.860Z,76.94
2022-08-08T22:30:33.639Z,77.36
2022-08-08T22:33:02.036Z,77.41
2022-08-08T22:36:04.529Z,77.79
2022-08-08T22:38:17.934Z,77.77
2022-08-08T22:40:49.058Z,77.62
2022-08-08T22:43:17.321Z,77.84
2022-08-08T22:45:46.728Z,77.87
2022-08-08T22:48:21.827Z,78.42
2022-08-08T22:50:50.261Z,78.50
2022-08-08T22:54:30.867Z,79.20
2022-08-08T22:56:08.403Z,79.43
2022-08-08T22:58:36.326Z,79.08
2022-08-08T23:01:26.702Z,78.93
2022-08-08T23:03:56.618Z,79.88
2022-08-08T23:06:25.016Z,79.66
2022-08-08T23:08:55.683Z,79.62
2022-08-08T23:11:31.464Z,80.04
2022-08-08T23:14:17.770Z,80.27
2022-08-08T23:16:57.755Z,80.04
2022-08-08T23:19:31.018Z,80.14
2022-08-08T23:22:02.165Z,80.25
2022-08-08T23:24:36.670Z,80.51
2022-08-08T23:27:06.816Z,80.45
2022-08-08T23:29:34.649Z,80.61
2022-08-08T23:32:04.704Z,80.71
2022-08-08T23:34:33.874Z,80.34
2022-08-08T23:37:02.588Z,80.47
2022-08-08T23:39:42.023Z,80.19
2022-08-08T23:42:21.413Z,80.39
2022-08-08T23:44:49.387Z,80.14
2022-08-08T23:49:01.797Z,80.59
2022-08-08T23:50:06.003Z,80.93
2022-08-08T23:52:34.703Z,80.95
2022-08-08T23:55:14.595Z,81.05
2022-08-08T23:57:53.421Z,81.06
